createdAt,value
2017-10-25T00:00:16.677Z,98.38
2017-10-25T00:01:16.670Z,98.57
2017-10-25T00:02:16.666Z,99.43
2017-10-25T00:03:16.656Z,99.24
2017-10-25T00:04:16.651Z,99.14
2017-10-25T00:05:16.322Z,98.38
2017-10-25T00:06:16.637Z,98.57
2017-10-25T00:07:16.633Z,98.57
2017-10-25T00:08:16.623Z,98.38
2017-10-25T00:09:16.643Z,98.47
2017-10-25T00:10:16.611Z,98.28
2017-10-25T00:11:16.605Z,98.09
2017-10-25T00:12:16.601Z,98.09
2017-10-25T00:13:16.592Z,98.28
2017-10-25T00:14:16.586Z,98.28
2017-10-25T00:15:16.573Z,98.38
2017-10-25T00:16:16.573Z,98.28
2017-10-25T00:17:16.243Z,98.57
2017-10-25T00:18:16.560Z,98.47
2017-10-25T00:19:16.555Z,98.38
2017-10-25T00:20:16.545Z,98.47
2017-10-25T00:21:16.215Z,98.38
2017-10-25T00:22:16.212Z,98.47
2017-10-25T00:23:16.531Z,98.28
2017-10-25T00:24:16.518Z,98.38
2017-10-25T00:25:16.513Z,98.52
2017-10-25T00:26:16.502Z,98.28
2017-10-25T00:27:16.497Z,98.47
2017-10-25T00:28:16.491Z,98.04
2017-10-25T00:29:16.162Z,98.13
2017-10-25T00:30:16.479Z,98.33
2017-10-25T00:31:16.470Z,98.13
2017-10-25T00:32:16.464Z,98.23
2017-10-25T00:33:16.467Z,98.23
2017-10-25T00:34:16.458Z,98.13
2017-10-25T00:35:16.446Z,98.23
2017-10-25T00:36:16.435Z,98.23
2017-10-25T00:37:16.430Z,97.85
2017-10-25T00:38:16.427Z,97.85
2017-10-25T00:39:16.093Z,97.75
2017-10-25T00:40:16.413Z,97.66
2017-10-25T00:41:16.405Z,97.75
2017-10-25T00:42:16.399Z,97.66
2017-10-25T00:43:16.389Z,97.47
2017-10-25T00:44:16.057Z,97.85
2017-10-25T00:45:16.382Z,97.75
2017-10-25T00:46:16.621Z,97.85
2017-10-25T00:47:16.364Z,97.66
2017-10-25T00:48:16.357Z,97.56
2017-10-25T00:49:16.346Z,97.85
2017-10-25T00:50:16.345Z,97.85
2017-10-25T00:51:16.339Z,97.28
2017-10-25T00:52:16.326Z,97.85
2017-10-25T00:53:16.325Z,97.28
2017-10-25T00:54:16.315Z,97.28
2017-10-25T00:55:15.985Z,97.37
2017-10-25T00:56:16.305Z,97.18
2017-10-25T00:57:16.318Z,97.37
2017-10-25T00:58:16.291Z,97.18
2017-10-25T00:59:16.279Z,97.47
2017-10-25T01:00:16.272Z,97.08
2017-10-25T01:01:16.268Z,96.99
2017-10-25T01:02:16.258Z,97.28
2017-10-25T01:03:16.253Z,97.28
2017-10-25T01:04:16.247Z,97.28
2017-10-25T01:05:15.915Z,97.28
2017-10-25T01:06:15.908Z,97.28
2017-10-25T01:07:16.224Z,97.37
2017-10-25T01:08:15.894Z,97.28
2017-10-25T01:09:16.212Z,97.56
2017-10-25T01:10:15.878Z,97.56
2017-10-25T01:11:16.199Z,97.47
2017-10-25T01:12:16.189Z,97.37
2017-10-25T01:13:16.183Z,97.37
2017-10-25T01:14:16.174Z,97.47
2017-10-25T01:15:16.190Z,97.47
2017-10-25T01:16:16.158Z,97.47
2017-10-25T01:17:16.402Z,97.56
2017-10-25T01:18:16.147Z,97.56
2017-10-25T01:19:16.140Z,97.28
2017-10-25T01:20:16.136Z,97.18
2017-10-25T01:21:16.126Z,97.08
2017-10-25T01:22:16.122Z,96.99
2017-10-25T01:23:16.114Z,97.08
2017-10-25T01:24:16.103Z,97.18
2017-10-25T01:25:16.098Z,97.08
2017-10-25T01:26:15.767Z,97.08
2017-10-25T01:27:16.086Z,97.28
2017-10-25T01:28:16.076Z,96.99
2017-10-25T01:29:16.067Z,96.89
2017-10-25T01:30:16.064Z,97.18
2017-10-25T01:31:16.059Z,97.28
2017-10-25T01:32:16.055Z,97.18
2017-10-25T01:33:16.043Z,97.08
2017-10-25T01:34:16.036Z,97.18
2017-10-25T01:35:16.030Z,96.89
2017-10-25T01:36:16.019Z,97.08
2017-10-25T01:37:15.692Z,97.08
2017-10-25T01:38:16.009Z,97.37
2017-10-25T01:39:16.012Z,97.18
2017-10-25T01:40:15.993Z,97.08
2017-10-25T01:41:15.987Z,97.28
2017-10-25T01:42:15.984Z,97.37
2017-10-25T01:43:15.973Z,96.89
2017-10-25T01:44:15.967Z,96.89
2017-10-25T01:45:15.979Z,97.18
2017-10-25T01:46:15.957Z,97.18
2017-10-25T01:47:15.621Z,97.18
2017-10-25T01:48:15.940Z,96.99
2017-10-25T01:49:15.932Z,97.08
2017-10-25T01:50:15.928Z,97.08
2017-10-25T01:51:15.918Z,97.13
2017-10-25T01:52:15.918Z,97.23
2017-10-25T01:53:15.906Z,96.66
2017-10-25T01:54:15.895Z,96.94
2017-10-25T01:55:15.895Z,96.66
2017-10-25T01:56:15.894Z,96.66
2017-10-25T01:57:15.877Z,96.66
2017-10-25T01:58:15.869Z,96.84
2017-10-25T01:59:15.862Z,96.56
2017-10-25T02:00:15.857Z,96.66
2017-10-25T02:01:15.849Z,96.27
2017-10-25T02:02:15.843Z,96.66
2017-10-25T02:03:15.517Z,96.66
2017-10-25T02:04:15.841Z,96.75
2017-10-25T02:05:15.822Z,96.66
2017-10-25T02:06:15.813Z,96.75
2017-10-25T02:07:15.818Z,96.27
2017-10-25T02:08:15.801Z,96.84
2017-10-25T02:09:15.469Z,96.75
2017-10-25T02:10:15.790Z,96.56
2017-10-25T02:11:15.780Z,96.56
2017-10-25T02:12:15.783Z,96.84
2017-10-25T02:13:15.445Z,96.51
2017-10-25T02:14:15.758Z,96.7
2017-10-25T02:15:15.756Z,96.66
2017-10-25T02:16:15.423Z,96.84
2017-10-25T02:17:15.746Z,96.51
2017-10-25T02:18:15.730Z,96.42
2017-10-25T02:19:15.726Z,96.75
2017-10-25T02:20:15.715Z,96.75
2017-10-25T02:21:15.713Z,96.84
2017-10-25T02:22:15.708Z,96.66
2017-10-25T02:23:15.698Z,96.56
2017-10-25T02:24:15.690Z,96.56
2017-10-25T02:25:15.689Z,96.56
2017-10-25T02:26:15.680Z,96.51
2017-10-25T02:27:15.675Z,96.75
2017-10-25T02:28:15.663Z,96.51
2017-10-25T02:29:15.656Z,96.27
2017-10-25T02:30:15.653Z,96.56
2017-10-25T02:31:15.650Z,96.56
2017-10-25T02:32:15.651Z,96.51
2017-10-25T02:33:15.633Z,96.47
2017-10-25T02:34:15.633Z,96.56
2017-10-25T02:35:15.617Z,96.42
2017-10-25T02:36:15.614Z,96.37
2017-10-25T02:37:15.604Z,96.56
2017-10-25T02:38:15.596Z,96.47
2017-10-25T02:39:15.594Z,96.75
2017-10-25T02:40:15.582Z,96.66
2017-10-25T02:41:15.577Z,96.75
2017-10-25T02:42:15.569Z,96.75
2017-10-25T02:43:15.562Z,96.56
2017-10-25T02:44:15.557Z,96.56
2017-10-25T02:45:15.549Z,96.56
2017-10-25T02:46:15.556Z,96.47
2017-10-25T02:47:15.536Z,96.94
2017-10-25T02:48:15.528Z,96.75
2017-10-25T02:49:15.525Z,96.37
2017-10-25T02:50:15.515Z,96.47
2017-10-25T02:51:15.510Z,96.66
2017-10-25T02:52:15.501Z,96.56
2017-10-25T02:53:15.497Z,96.66
2017-10-25T02:54:15.165Z,96.75
2017-10-25T02:55:15.486Z,96.18
2017-10-25T02:56:15.475Z,96.27
2017-10-25T02:57:15.466Z,96.08
2017-10-25T02:58:15.138Z,96.27
2017-10-25T02:59:15.460Z,96.27
2017-10-25T03:00:15.447Z,96.27
2017-10-25T03:01:15.116Z,96.27
2017-10-25T03:02:15.433Z,96.27
2017-10-25T03:03:15.426Z,96.27
2017-10-25T03:04:15.421Z,96.27
2017-10-25T03:05:15.409Z,96.27
2017-10-25T03:06:15.405Z,96.18
2017-10-25T03:07:15.398Z,96.18
2017-10-25T03:08:15.074Z,96.37
2017-10-25T03:09:15.061Z,96.37
2017-10-25T03:10:15.377Z,96.37
2017-10-25T03:11:15.369Z,96.18
2017-10-25T03:12:15.369Z,96.47
2017-10-25T03:13:15.365Z,96.18
2017-10-25T03:14:15.349Z,96.18
2017-10-25T03:15:15.348Z,96.47
2017-10-25T03:16:15.337Z,96.18
2017-10-25T03:17:15.346Z,96.37
2017-10-25T03:18:15.336Z,96.37
2017-10-25T03:19:15.320Z,96.47
2017-10-25T03:20:15.317Z,96.18
2017-10-25T03:21:15.303Z,96.47
2017-10-25T03:22:15.302Z,96.37
2017-10-25T03:23:15.299Z,96.47
2017-10-25T03:24:15.285Z,96.27
2017-10-25T03:25:15.278Z,96.47
2017-10-25T03:26:15.271Z,96.27
2017-10-25T03:27:15.266Z,96.27
2017-10-25T03:28:15.275Z,96.27
2017-10-25T03:29:15.250Z,96.37
2017-10-25T03:30:15.247Z,96.37
2017-10-25T03:31:15.243Z,96.27
2017-10-25T03:32:15.230Z,96.47
2017-10-25T03:33:14.900Z,96.27
2017-10-25T03:34:15.215Z,96.37
2017-10-25T03:35:15.234Z,96.56
2017-10-25T03:36:15.202Z,96.47
2017-10-25T03:37:15.195Z,96.37
2017-10-25T03:38:15.186Z,96.37
2017-10-25T03:39:15.180Z,96.18
2017-10-25T03:40:15.176Z,96.18
2017-10-25T03:41:15.169Z,96.18
2017-10-25T03:42:15.158Z,96.47
2017-10-25T03:43:15.156Z,96.18
2017-10-25T03:44:15.148Z,96.47
2017-10-25T03:45:15.141Z,96.18
2017-10-25T03:46:15.141Z,96.47
2017-10-25T03:47:15.134Z,96.27
2017-10-25T03:48:14.799Z,96.18
2017-10-25T03:49:15.115Z,96.37
2017-10-25T03:50:15.112Z,96.27
2017-10-25T03:51:15.102Z,96.37
2017-10-25T03:52:15.093Z,96.56
2017-10-25T03:53:15.345Z,96.47
2017-10-25T03:54:15.084Z,96.47
2017-10-25T03:55:15.077Z,96.27
2017-10-25T03:56:15.066Z,96.47
2017-10-25T03:57:14.738Z,96.37
2017-10-25T03:58:15.052Z,96.47
2017-10-25T03:59:15.047Z,96.56
2017-10-25T04:00:15.047Z,96.37
2017-10-25T04:01:15.034Z,96.37
2017-10-25T04:02:15.028Z,96.27
2017-10-25T04:03:15.021Z,95.7
2017-10-25T04:04:15.015Z,95.7
2017-10-25T04:05:15.005Z,95.79
2017-10-25T04:06:14.676Z,96.56
2017-10-25T04:07:14.994Z,95.61
2017-10-25T04:08:14.991Z,96.27
2017-10-25T04:09:14.982Z,95.79
2017-10-25T04:10:14.977Z,96.27
2017-10-25T04:11:14.970Z,95.61
2017-10-25T04:12:14.961Z,95.98
2017-10-25T04:13:14.953Z,95.98
2017-10-25T04:14:14.949Z,95.89
2017-10-25T04:15:14.943Z,95.89
2017-10-25T04:16:14.611Z,95.79
2017-10-25T04:17:14.925Z,95.98
2017-10-25T04:18:14.924Z,96.08
2017-10-25T04:19:14.915Z,95.89
2017-10-25T04:20:14.909Z,95.89
2017-10-25T04:21:14.901Z,95.7
2017-10-25T04:22:14.895Z,95.94
2017-10-25T04:23:14.886Z,95.94
2017-10-25T04:24:15.136Z,96.08
2017-10-25T04:25:14.879Z,95.89
2017-10-25T04:26:14.869Z,95.94
2017-10-25T04:27:14.858Z,95.94
2017-10-25T04:28:14.855Z,95.98
2017-10-25T04:29:14.846Z,95.94
2017-10-25T04:30:14.843Z,96.13
2017-10-25T04:31:14.837Z,95.94
2017-10-25T04:32:14.826Z,95.94
2017-10-25T04:33:14.822Z,95.89
2017-10-25T04:34:14.813Z,95.94
2017-10-25T04:35:14.806Z,96.03
2017-10-25T04:36:14.803Z,95.84
2017-10-25T04:37:14.796Z,96.13
2017-10-25T04:38:14.788Z,95.84
2017-10-25T04:39:14.788Z,96.13
2017-10-25T04:40:14.779Z,96.03
2017-10-25T04:41:14.768Z,96.03
2017-10-25T04:42:14.764Z,96.03
2017-10-25T04:43:14.762Z,95.84
2017-10-25T04:44:14.758Z,96.32
2017-10-25T04:45:14.753Z,96.32
2017-10-25T04:46:14.753Z,96.32
2017-10-25T04:47:14.730Z,96.22
2017-10-25T04:48:14.727Z,96.22
2017-10-25T04:49:14.716Z,96.03
2017-10-25T04:50:14.713Z,96.03
2017-10-25T04:51:14.705Z,95.94
2017-10-25T04:52:14.376Z,96.32
2017-10-25T04:53:14.696Z,96.32
2017-10-25T04:54:14.686Z,95.84
2017-10-25T04:55:14.930Z,96.32
2017-10-25T04:56:14.673Z,96.32
2017-10-25T04:57:14.672Z,96.32
2017-10-25T04:58:14.664Z,95.94
2017-10-25T04:59:14.651Z,96.03
2017-10-25T05:00:14.648Z,96.03
2017-10-25T05:01:14.639Z,96.42
2017-10-25T05:02:14.314Z,96.03
2017-10-25T05:03:14.628Z,96.51
2017-10-25T05:04:14.298Z,96.03
2017-10-25T05:05:14.611Z,96.13
2017-10-25T05:06:14.613Z,96.13
2017-10-25T05:07:14.624Z,96.51
2017-10-25T05:08:14.599Z,96.13
2017-10-25T05:09:14.590Z,96.03
2017-10-25T05:10:14.592Z,96.03
2017-10-25T05:11:14.253Z,96.42
2017-10-25T05:12:14.579Z,96.51
2017-10-25T05:13:14.563Z,96.42
2017-10-25T05:14:14.560Z,96.22
2017-10-25T05:15:14.553Z,96.03
2017-10-25T05:16:14.550Z,96.03
2017-10-25T05:17:14.539Z,96.22
2017-10-25T05:18:14.534Z,96.13
2017-10-25T05:19:14.523Z,96.13
2017-10-25T05:20:14.524Z,96.13
2017-10-25T05:21:14.512Z,96.42
2017-10-25T05:22:14.505Z,96.13
2017-10-25T05:23:14.502Z,96.51
2017-10-25T05:24:14.492Z,96.42
2017-10-25T05:25:14.488Z,96.13
2017-10-25T05:26:14.158Z,96.13
2017-10-25T05:27:14.480Z,96.61
2017-10-25T05:28:14.147Z,96.42
2017-10-25T05:29:14.461Z,95.94
2017-10-25T05:30:14.453Z,96.61
2017-10-25T05:31:14.451Z,96.37
2017-10-25T05:32:14.443Z,96.42
2017-10-25T05:33:14.434Z,96.27
2017-10-25T05:34:14.434Z,96.75
2017-10-25T05:35:14.423Z,96.27
2017-10-25T05:36:14.097Z,96.37
2017-10-25T05:37:14.413Z,96.18
2017-10-25T05:38:14.407Z,96.27
2017-10-25T05:39:14.410Z,96.27
2017-10-25T05:40:14.393Z,96.18
2017-10-25T05:41:14.389Z,96.08
2017-10-25T05:42:14.384Z,96.18
2017-10-25T05:43:14.386Z,96.47
2017-10-25T05:44:14.367Z,96.75
2017-10-25T05:45:14.360Z,96.18
2017-10-25T05:46:14.354Z,96.37
2017-10-25T05:47:14.349Z,96.27
2017-10-25T05:48:14.347Z,96.75
2017-10-25T05:49:14.337Z,96.18
2017-10-25T05:50:14.340Z,96.27
2017-10-25T05:51:14.324Z,96.18
2017-10-25T05:52:14.314Z,96.37
2017-10-25T05:53:14.313Z,96.37
2017-10-25T05:54:13.985Z,96.47
2017-10-25T05:55:14.297Z,96.27
2017-10-25T05:56:14.295Z,96.47
2017-10-25T05:57:14.286Z,96.32
2017-10-25T05:58:14.281Z,96.56
2017-10-25T05:59:14.282Z,96.51
2017-10-25T06:00:14.266Z,96.32
2017-10-25T06:01:14.264Z,96.42
2017-10-25T06:02:14.255Z,96.37
2017-10-25T06:03:14.251Z,96.27
2017-10-25T06:04:14.241Z,95.75
2017-10-25T06:05:14.238Z,95.94
2017-10-25T06:06:14.231Z,96.03
2017-10-25T06:07:14.226Z,96.03
2017-10-25T06:08:13.896Z,95.75
2017-10-25T06:09:14.215Z,96.18
2017-10-25T06:10:14.207Z,95.94
2017-10-25T06:11:14.216Z,96.03
2017-10-25T06:12:13.872Z,95.94
2017-10-25T06:13:14.186Z,95.65
2017-10-25T06:14:14.182Z,96.42
2017-10-25T06:15:14.178Z,95.94
2017-10-25T06:16:14.172Z,95.7
2017-10-25T06:17:14.161Z,95.98
2017-10-25T06:18:14.155Z,95.7
2017-10-25T06:19:14.147Z,96.37
2017-10-25T06:20:14.145Z,95.98
2017-10-25T06:21:14.136Z,96.37
2017-10-25T06:22:14.136Z,96.37
2017-10-25T06:23:14.125Z,96.27
2017-10-25T06:24:13.796Z,96.08
2017-10-25T06:25:14.113Z,96.27
2017-10-25T06:26:14.104Z,95.98
2017-10-25T06:27:13.776Z,96.18
2017-10-25T06:28:14.096Z,95.89
2017-10-25T06:29:14.089Z,95.98
2017-10-25T06:30:14.081Z,95.98
2017-10-25T06:31:14.075Z,96.18
2017-10-25T06:32:14.069Z,96.18
2017-10-25T06:33:14.062Z,96.27
2017-10-25T06:34:13.735Z,96.18
2017-10-25T06:35:14.049Z,96.27
2017-10-25T06:36:14.043Z,96.27
2017-10-25T06:37:14.036Z,96.27
2017-10-25T06:38:14.036Z,95.89
2017-10-25T06:39:14.030Z,95.89
2017-10-25T06:40:14.026Z,96.27
2017-10-25T06:41:14.017Z,96.08
2017-10-25T06:42:14.012Z,95.98
2017-10-25T06:43:14.000Z,96.08
2017-10-25T06:44:13.670Z,96.27
2017-10-25T06:45:13.987Z,96.27
2017-10-25T06:46:13.983Z,96.18
2017-10-25T06:47:13.979Z,95.98
2017-10-25T06:48:13.973Z,95.98
2017-10-25T06:49:13.964Z,96.08
2017-10-25T06:50:13.958Z,96.08
2017-10-25T06:51:13.628Z,95.89
2017-10-25T06:52:13.946Z,96.18
2017-10-25T06:53:13.618Z,96.08
2017-10-25T06:54:13.951Z,96.27
2017-10-25T06:55:13.930Z,95.98
2017-10-25T06:56:13.921Z,95.89
2017-10-25T06:57:13.913Z,96.27
2017-10-25T06:58:13.908Z,95.79
2017-10-25T06:59:13.900Z,95.79
2017-10-25T07:00:14.149Z,95.98
2017-10-25T07:01:13.894Z,95.98
2017-10-25T07:02:13.885Z,95.89
2017-10-25T07:03:13.878Z,96.27
2017-10-25T07:04:13.870Z,96.08
2017-10-25T07:05:13.864Z,96.18
2017-10-25T07:06:13.862Z,95.98
2017-10-25T07:07:13.857Z,96.27
2017-10-25T07:08:13.846Z,96.18
2017-10-25T07:09:13.518Z,96.27
2017-10-25T07:10:13.515Z,95.79
2017-10-25T07:11:13.834Z,96.08
2017-10-25T07:12:13.829Z,96.18
2017-10-25T07:13:13.822Z,96.03
2017-10-25T07:14:13.817Z,96.13
2017-10-25T07:15:13.825Z,95.75
2017-10-25T07:16:13.799Z,96.13
2017-10-25T07:17:13.797Z,96.22
2017-10-25T07:18:13.468Z,96.22
2017-10-25T07:19:13.461Z,96.22
2017-10-25T07:20:13.774Z,95.84
2017-10-25T07:21:13.771Z,95.65
2017-10-25T07:22:13.762Z,95.84
2017-10-25T07:23:13.759Z,95.84
2017-10-25T07:24:13.754Z,95.84
2017-10-25T07:25:13.746Z,95.84
2017-10-25T07:26:13.742Z,95.75
2017-10-25T07:27:13.741Z,95.94
2017-10-25T07:28:13.732Z,95.65
2017-10-25T07:29:13.726Z,95.65
2017-10-25T07:30:13.397Z,96.13
2017-10-25T07:31:13.965Z,95.89
2017-10-25T07:32:13.718Z,96.27
2017-10-25T07:33:13.700Z,96.08
2017-10-25T07:34:13.694Z,95.98
2017-10-25T07:35:13.692Z,95.89
2017-10-25T07:36:13.687Z,95.7
2017-10-25T07:37:13.358Z,95.79
2017-10-25T07:38:13.675Z,95.7
2017-10-25T07:39:13.671Z,95.79
2017-10-25T07:40:13.663Z,95.7
2017-10-25T07:41:13.659Z,95.79
2017-10-25T07:42:13.659Z,95.7
2017-10-25T07:43:13.646Z,95.89
2017-10-25T07:44:13.319Z,95.75
2017-10-25T07:45:13.634Z,95.98
2017-10-25T07:46:13.631Z,96.22
2017-10-25T07:47:13.310Z,95.26
2017-10-25T07:48:13.628Z,96.22
2017-10-25T07:49:13.614Z,95.94
2017-10-25T07:50:13.611Z,95.84
2017-10-25T07:51:13.281Z,95.75
2017-10-25T07:52:13.600Z,95.17
2017-10-25T07:53:13.598Z,95.56
2017-10-25T07:54:13.588Z,95.65
2017-10-25T07:55:13.583Z,95.65
2017-10-25T07:56:13.256Z,95.84
2017-10-25T07:57:13.573Z,95.75
2017-10-25T07:58:13.569Z,95.65
2017-10-25T07:59:13.567Z,95.75
2017-10-25T08:00:13.559Z,95.79
2017-10-25T08:01:13.558Z,95.6
2017-10-25T08:02:13.800Z,95.79
2017-10-25T08:03:13.547Z,95.89
2017-10-25T08:04:13.538Z,96.18
2017-10-25T08:05:13.533Z,95.31
2017-10-25T08:06:13.528Z,95.7
2017-10-25T08:07:13.523Z,95.79
2017-10-25T08:08:13.522Z,95.7
2017-10-25T08:09:13.518Z,95.31
2017-10-25T08:10:13.511Z,95.21
2017-10-25T08:11:13.510Z,95.31
2017-10-25T08:12:13.500Z,95.41
2017-10-25T08:13:13.174Z,95.41
2017-10-25T08:14:13.490Z,95.79
2017-10-25T08:15:13.486Z,95.41
2017-10-25T08:16:13.484Z,95.07
2017-10-25T08:17:13.489Z,96.03
2017-10-25T08:18:13.486Z,95.84
2017-10-25T08:19:13.470Z,95.26
2017-10-25T08:20:13.462Z,95.55
2017-10-25T08:21:13.462Z,95.75
2017-10-25T08:22:13.457Z,94.98
2017-10-25T08:23:13.128Z,94.88
2017-10-25T08:24:13.456Z,95.31
2017-10-25T08:25:13.446Z,95.21
2017-10-25T08:26:13.440Z,95.12
2017-10-25T08:27:13.115Z,95.21
2017-10-25T08:28:13.109Z,94.93
2017-10-25T08:29:13.424Z,95.03
2017-10-25T08:30:13.426Z,94.54
2017-10-25T08:31:13.419Z,94.11
2017-10-25T08:32:13.413Z,94.31
2017-10-25T08:33:13.415Z,94.88
2017-10-25T08:34:13.422Z,95.17
2017-10-25T08:35:13.099Z,93.82
2017-10-25T08:36:13.077Z,94.21
2017-10-25T08:37:13.403Z,94.4
2017-10-25T08:38:13.398Z,95.03
2017-10-25T08:39:13.402Z,94.31
2017-10-25T08:40:13.422Z,93.77
2017-10-25T08:41:13.397Z,94.45
2017-10-25T08:42:13.074Z,94.26
2017-10-25T08:43:13.398Z,94.06
2017-10-25T08:44:13.414Z,93.68
2017-10-25T08:45:13.047Z,94.54
2017-10-25T08:46:13.367Z,94.45
2017-10-25T08:47:13.360Z,94.26
2017-10-25T08:48:13.358Z,93.96
2017-10-25T08:49:13.360Z,93.58
2017-10-25T08:50:13.350Z,94.26
2017-10-25T08:51:13.353Z,94.64
2017-10-25T08:52:13.349Z,94.16
2017-10-25T08:53:13.347Z,94.54
2017-10-25T08:54:13.015Z,93.91
2017-10-25T08:55:13.338Z,94.01
2017-10-25T08:56:13.335Z,93.82
2017-10-25T08:57:13.329Z,93.34
2017-10-25T08:58:13.325Z,93.73
2017-10-25T08:59:13.324Z,93.05
2017-10-25T09:00:13.319Z,94.21
2017-10-25T09:01:13.316Z,93.82
2017-10-25T09:02:12.991Z,93.73
2017-10-25T09:03:13.311Z,93.34
2017-10-25T09:04:13.305Z,92.96
2017-10-25T09:05:13.304Z,93.44
2017-10-25T09:06:13.307Z,93.53
2017-10-25T09:07:13.298Z,93.82
2017-10-25T09:08:13.295Z,94.11
2017-10-25T09:09:12.969Z,94.21
2017-10-25T09:10:13.290Z,93.73
2017-10-25T09:11:12.962Z,94.4
2017-10-25T09:12:13.280Z,94.15
2017-10-25T09:13:13.281Z,93.58
2017-10-25T09:14:13.277Z,92.91
2017-10-25T09:15:12.950Z,93.29
2017-10-25T09:16:13.270Z,93.38
2017-10-25T09:17:13.268Z,94.06
2017-10-25T09:18:13.266Z,94.06
2017-10-25T09:19:13.260Z,93.48
2017-10-25T09:20:13.258Z,93.96
2017-10-25T09:21:13.256Z,93.19
2017-10-25T09:22:13.255Z,93.48
2017-10-25T09:23:13.250Z,93.58
2017-10-25T09:24:13.247Z,93.96
2017-10-25T09:25:13.246Z,93.87
2017-10-25T09:26:13.242Z,93.58
2017-10-25T09:27:13.242Z,93
2017-10-25T09:28:13.238Z,93.19
2017-10-25T09:29:12.912Z,92.61
2017-10-25T09:30:12.910Z,93.1
2017-10-25T09:31:13.233Z,92.91
2017-10-25T09:32:13.224Z,93.1
2017-10-25T09:33:13.228Z,92.76
2017-10-25T09:34:13.221Z,93.19
2017-10-25T09:35:13.222Z,93.33
2017-10-25T09:36:13.217Z,92.47
2017-10-25T09:37:13.215Z,92.38
2017-10-25T09:38:13.210Z,92.76
2017-10-25T09:39:12.884Z,92.81
2017-10-25T09:40:13.204Z,93.24
2017-10-25T09:41:13.209Z,93.87
2017-10-25T09:42:13.201Z,92.95
2017-10-25T09:43:13.215Z,93.29
2017-10-25T09:44:13.197Z,93.1
2017-10-25T09:45:13.195Z,92.91
2017-10-25T09:46:13.189Z,93
2017-10-25T09:47:13.190Z,93
2017-10-25T09:48:13.186Z,93.19
2017-10-25T09:49:13.179Z,93.1
2017-10-25T09:50:13.181Z,93.19
2017-10-25T09:51:13.174Z,93.38
2017-10-25T09:52:13.173Z,93.29
2017-10-25T09:53:13.172Z,92.71
2017-10-25T09:54:13.169Z,92.71
2017-10-25T09:55:13.176Z,92.71
2017-10-25T09:56:12.840Z,92.91
2017-10-25T09:57:12.841Z,93.38
2017-10-25T09:58:12.836Z,93
2017-10-25T09:59:13.162Z,93.19
2017-10-25T10:00:12.832Z,93.38
2017-10-25T10:01:13.150Z,93.48
2017-10-25T10:02:13.149Z,94.2
2017-10-25T10:03:13.149Z,93.68
2017-10-25T10:04:13.143Z,93.05
2017-10-25T10:05:13.140Z,93.62
2017-10-25T10:06:13.144Z,93.33
2017-10-25T10:07:13.137Z,92.95
2017-10-25T10:08:12.812Z,92.57
2017-10-25T10:09:13.133Z,91.75
2017-10-25T10:10:12.806Z,92.03
2017-10-25T10:11:13.123Z,92.32
2017-10-25T10:12:13.122Z,92.03
2017-10-25T10:13:13.121Z,92.03
2017-10-25T10:14:13.119Z,91.02
2017-10-25T10:15:13.115Z,91.69
2017-10-25T10:16:13.116Z,92.08
2017-10-25T10:17:13.115Z,92.08
2017-10-25T10:18:12.788Z,92.27
2017-10-25T10:19:13.107Z,91.02
2017-10-25T10:20:13.116Z,91.5
2017-10-25T10:21:13.104Z,91.41
2017-10-25T10:22:13.107Z,90.58
2017-10-25T10:23:13.102Z,91.45
2017-10-25T10:24:13.100Z,89.33
2017-10-25T10:25:13.111Z,90
2017-10-25T10:26:13.101Z,90.3
2017-10-25T10:27:13.097Z,90.2
2017-10-25T10:28:13.096Z,89.33
2017-10-25T10:29:12.772Z,89.91
2017-10-25T10:30:13.093Z,90.2
2017-10-25T10:31:13.095Z,90.97
2017-10-25T10:32:13.088Z,91.74
2017-10-25T10:33:13.088Z,89.81
2017-10-25T10:34:13.085Z,89.04
2017-10-25T10:35:13.085Z,89.81
2017-10-25T10:36:13.089Z,90.1
2017-10-25T10:37:13.081Z,88.95
2017-10-25T10:38:13.079Z,89.72
2017-10-25T10:39:13.081Z,90.2
2017-10-25T10:40:13.075Z,89.04
2017-10-25T10:41:13.074Z,89.62
2017-10-25T10:42:13.074Z,90.78
2017-10-25T10:43:13.072Z,90.3
2017-10-25T10:44:12.748Z,90
2017-10-25T10:45:13.069Z,90
2017-10-25T10:46:12.744Z,91.36
2017-10-25T10:47:13.068Z,91.55
2017-10-25T10:48:13.067Z,90.3
2017-10-25T10:49:12.743Z,90.2
2017-10-25T10:50:13.063Z,90.1
2017-10-25T10:51:13.057Z,89.62
2017-10-25T10:52:13.067Z,90.88
2017-10-25T10:53:12.736Z,91.45
2017-10-25T10:54:13.055Z,91.12
2017-10-25T10:55:13.059Z,90.78
2017-10-25T10:56:12.729Z,91.55
2017-10-25T10:57:13.055Z,91.55
2017-10-25T10:58:13.049Z,91.83
2017-10-25T10:59:13.046Z,91.06
2017-10-25T11:00:13.067Z,91.16
2017-10-25T11:01:13.046Z,91.06
2017-10-25T11:02:13.077Z,89.81
2017-10-25T11:03:13.060Z,90.97
2017-10-25T11:04:13.040Z,90.68
2017-10-25T11:05:12.717Z,89.91
2017-10-25T11:06:12.714Z,89.91
2017-10-25T11:07:13.034Z,90.68
2017-10-25T11:08:12.713Z,90.48
2017-10-25T11:09:13.032Z,90.68
2017-10-25T11:10:13.030Z,90.92
2017-10-25T11:11:13.028Z,91.12
2017-10-25T11:12:12.706Z,91.36
2017-10-25T11:13:13.025Z,91.55
2017-10-25T11:14:12.709Z,91.64
2017-10-25T11:15:12.702Z,90.58
2017-10-25T11:16:13.019Z,90.39
2017-10-25T11:17:13.020Z,90
2017-10-25T11:18:13.017Z,90.39
2017-10-25T11:19:13.015Z,90.68
2017-10-25T11:20:13.016Z,90.3
2017-10-25T11:21:13.013Z,89.81
2017-10-25T11:22:13.035Z,89.72
2017-10-25T11:23:13.008Z,90.1
2017-10-25T11:24:13.007Z,90.1
2017-10-25T11:25:13.009Z,89.72
2017-10-25T11:26:13.004Z,90
2017-10-25T11:27:13.005Z,90
2017-10-25T11:28:13.007Z,89.33
2017-10-25T11:29:13.004Z,89.33
2017-10-25T11:30:13.013Z,90
2017-10-25T11:31:12.997Z,90.97
2017-10-25T11:32:12.998Z,89.86
2017-10-25T11:33:12.992Z,90.83
2017-10-25T11:34:13.001Z,90.92
2017-10-25T11:35:12.997Z,89.77
2017-10-25T11:36:12.992Z,90.34
2017-10-25T11:37:12.988Z,91.02
2017-10-25T11:38:12.985Z,91.89
2017-10-25T11:39:12.992Z,91.31
2017-10-25T11:40:12.984Z,90.69
2017-10-25T11:41:12.992Z,90.4
2017-10-25T11:42:12.980Z,91.36
2017-10-25T11:43:12.977Z,91.94
2017-10-25T11:44:12.975Z,91.46
2017-10-25T11:45:12.973Z,92.22
2017-10-25T11:46:12.647Z,92.03
2017-10-25T11:47:12.976Z,92.32
2017-10-25T11:48:12.966Z,92.03
2017-10-25T11:49:12.973Z,91.94
2017-10-25T11:50:12.969Z,91.84
2017-10-25T11:51:12.961Z,92.03
2017-10-25T11:52:12.959Z,91.27
2017-10-25T11:53:12.955Z,90.69
2017-10-25T11:54:12.631Z,91.17
2017-10-25T11:55:13.205Z,91.17
2017-10-25T11:56:12.950Z,91.07
2017-10-25T11:57:12.946Z,91.07
2017-10-25T11:58:12.943Z,91.17
2017-10-25T11:59:12.941Z,91.75
2017-10-25T12:00:12.941Z,92.03
2017-10-25T12:01:12.941Z,91.94
2017-10-25T12:02:12.936Z,91.55
2017-10-25T12:03:12.933Z,91.55
2017-10-25T12:04:12.929Z,91.94
2017-10-25T12:05:12.927Z,91.65
2017-10-25T12:06:12.932Z,90.69
2017-10-25T12:07:12.924Z,91.07
2017-10-25T12:08:12.922Z,90.78
2017-10-25T12:09:12.920Z,91.75
2017-10-25T12:10:12.917Z,91.65
2017-10-25T12:11:12.911Z,91.41
2017-10-25T12:12:12.592Z,90.73
2017-10-25T12:13:12.589Z,90.06
2017-10-25T12:14:12.590Z,90.06
2017-10-25T12:15:12.909Z,89.86
2017-10-25T12:16:12.905Z,89.96
2017-10-25T12:17:12.581Z,89.96
2017-10-25T12:18:12.904Z,90.16
2017-10-25T12:19:12.899Z,90.54
2017-10-25T12:20:12.896Z,90.44
2017-10-25T12:21:12.895Z,90.73
2017-10-25T12:22:12.899Z,90.06
2017-10-25T12:23:12.571Z,90.06
2017-10-25T12:24:12.572Z,89.48
2017-10-25T12:25:12.892Z,88.61
2017-10-25T12:26:12.888Z,88.71
2017-10-25T12:27:12.883Z,89.77
2017-10-25T12:28:12.892Z,89.67
2017-10-25T12:29:13.080Z,89.58
2017-10-25T12:30:12.881Z,89.67
2017-10-25T12:31:12.871Z,90.44
2017-10-25T12:32:12.871Z,90.34
2017-10-25T12:33:12.869Z,90.54
2017-10-25T12:34:12.873Z,89.86
2017-10-25T12:35:12.871Z,90.16
2017-10-25T12:36:12.863Z,90.83
2017-10-25T12:37:12.864Z,90.06
2017-10-25T12:38:12.859Z,89.96
2017-10-25T12:39:12.863Z,90.73
2017-10-25T12:40:12.854Z,90.64
2017-10-25T12:41:12.530Z,90.83
2017-10-25T12:42:12.856Z,89.67
2017-10-25T12:43:12.847Z,89.67
2017-10-25T12:44:12.842Z,89.77
2017-10-25T12:45:12.519Z,89.39
2017-10-25T12:46:12.840Z,89.19
2017-10-25T12:47:12.839Z,89
2017-10-25T12:48:12.840Z,89.24
2017-10-25T12:49:12.833Z,89.72
2017-10-25T12:50:12.831Z,89.72
2017-10-25T12:51:12.828Z,89.53
2017-10-25T12:52:12.501Z,89.92
2017-10-25T12:53:12.822Z,89.82
2017-10-25T12:54:12.823Z,89.63